sensor_id;sensor_type;location;lat;lon;timestamp;P1;durP1;ratioP1;P2;durP2;ratioP2
68089;SDS011;54880;50.986;6.990;2023-04-30T00:01:18;30.30;;;18.13;;
68089;SDS011;54880;50.986;6.990;2023-04-30T00:03:43;31.97;;;18.20;;
68089;SDS011;54880;50.986;6.990;2023-04-30T00:06:08;34.97;;;18.90;;
68089;SDS011;54880;50.986;6.990;2023-04-30T00:08:34;28.13;;;17.30;;
68089;SDS011;54880;50.986;6.990;2023-04-30T00:10:59;31.57;;;18.20;;
68089;SDS011;54880;50.986;6.990;2023-04-30T00:13:24;30.97;;;17.30;;
68089;SDS011;54880;50.986;6.990;2023-04-30T00:15:50;27.73;;;17.30;;
68089;SDS011;54880;50.986;6.990;2023-04-30T00:18:15;27.43;;;17.00;;
68089;SDS011;54880;50.986;6.990;2023-04-30T00:20:40;31.40;;;18.30;;
68089;SDS011;54880;50.986;6.990;2023-04-30T00:23:06;28.43;;;17.33;;
68089;SDS011;54880;50.986;6.990;2023-04-30T00:25:31;28.77;;;17.10;;
68089;SDS011;54880;50.986;6.990;2023-04-30T00:27:56;28.40;;;17.67;;
68089;SDS011;54880;50.986;6.990;2023-04-30T00:30:21;29.10;;;16.53;;
68089;SDS011;54880;50.986;6.990;2023-04-30T00:32:46;27.03;;;16.80;;
68089;SDS011;54880;50.986;6.990;2023-04-30T00:35:12;33.30;;;18.20;;
68089;SDS011;54880;50.986;6.990;2023-04-30T00:37:37;29.53;;;17.63;;
68089;SDS011;54880;50.986;6.990;2023-04-30T00:40:02;26.80;;;16.33;;
68089;SDS011;54880;50.986;6.990;2023-04-30T00:42:28;29.97;;;17.07;;
68089;SDS011;54880;50.986;6.990;2023-04-30T00:44:53;28.37;;;16.57;;
68089;SDS011;54880;50.986;6.990;2023-04-30T00:47:18;27.47;;;16.97;;
68089;SDS011;54880;50.986;6.990;2023-04-30T00:49:43;27.93;;;16.37;;
68089;SDS011;54880;50.986;6.990;2023-04-30T00:52:09;32.63;;;17.33;;
68089;SDS011;54880;50.986;6.990;2023-04-30T00:54:35;30.05;;;17.05;;
68089;SDS011;54880;50.986;6.990;2023-04-30T00:57:00;27.03;;;16.70;;
68089;SDS011;54880;50.986;6.990;2023-04-30T00:59:26;25.47;;;16.10;;
68089;SDS011;54880;50.986;6.990;2023-04-30T01:01:54;29.50;;;16.70;;
68089;SDS011;54880;50.986;6.990;2023-04-30T01:04:20;29.52;;;16.50;;
68089;SDS011;54880;50.986;6.990;2023-04-30T01:06:45;27.00;;;16.27;;
68089;SDS011;54880;50.986;6.990;2023-04-30T01:09:11;27.03;;;16.37;;
68089;SDS011;54880;50.986;6.990;2023-04-30T01:11:46;26.43;;;16.63;;
68089;SDS011;54880;50.986;6.990;2023-04-30T01:14:21;27.63;;;15.55;;
68089;SDS011;54880;50.986;6.990;2023-04-30T01:22:04;29.75;;;15.57;;
68089;SDS011;54880;50.986;6.990;2023-04-30T01:24:40;26.73;;;15.73;;
68089;SDS011;54880;50.986;6.990;2023-04-30T01:27:29;24.55;;;14.93;;
68089;SDS011;54880;50.986;6.990;2023-04-30T01:29:56;27.65;;;16.50;;
68089;SDS011;54880;50.986;6.990;2023-04-30T01:32:22;28.23;;;15.55;;
68089;SDS011;54880;50.986;6.990;2023-04-30T01:34:48;26.90;;;15.30;;
68089;SDS011;54880;50.986;6.990;2023-04-30T01:37:21;28.40;;;15.97;;
68089;SDS011;54880;50.986;6.990;2023-04-30T01:39:52;25.73;;;15.48;;
68089;SDS011;54880;50.986;6.990;2023-04-30T01:42:22;27.98;;;15.10;;
68089;SDS011;54880;50.986;6.990;2023-04-30T01:45:09;27.00;;;15.13;;
68089;SDS011;54880;50.986;6.990;2023-04-30T01:50:28;24.75;;;14.80;;
68089;SDS011;54880;50.986;6.990;2023-04-30T01:52:59;23.42;;;14.25;;
68089;SDS011;54880;50.986;6.990;2023-04-30T01:55:36;27.50;;;14.52;;
68089;SDS011;54880;50.986;6.990;2023-04-30T01:58:04;23.47;;;13.77;;
68089;SDS011;54880;50.986;6.990;2023-04-30T02:00:29;22.77;;;14.07;;
68089;SDS011;54880;50.986;6.990;2023-04-30T02:02:55;26.30;;;14.32;;
68089;SDS011;54880;50.986;6.990;2023-04-30T02:05:21;24.60;;;13.20;;
68089;SDS011;54880;50.986;6.990;2023-04-30T02:07:47;27.33;;;13.77;;
68089;SDS011;54880;50.986;6.990;2023-04-30T02:10:13;24.65;;;13.90;;
68089;SDS011;54880;50.986;6.990;2023-04-30T02:12:38;22.50;;;13.40;;
68089;SDS011;54880;50.986;6.990;2023-04-30T02:15:04;23.35;;;12.93;;
68089;SDS011;54880;50.986;6.990;2023-04-30T02:17:30;23.50;;;14.18;;
68089;SDS011;54880;50.986;6.990;2023-04-30T02:19:56;24.07;;;12.90;;
68089;SDS011;54880;50.986;6.990;2023-04-30T02:22:21;22.50;;;14.00;;
68089;SDS011;54880;50.986;6.990;2023-04-30T02:24:47;24.83;;;13.48;;
68089;SDS011;54880;50.986;6.990;2023-04-30T02:27:12;22.90;;;12.53;;
68089;SDS011;54880;50.986;6.990;2023-04-30T02:29:37;20.60;;;12.33;;
68089;SDS011;54880;50.986;6.990;2023-04-30T02:32:02;21.73;;;12.23;;
68089;SDS011;54880;50.986;6.990;2023-04-30T02:34:28;22.53;;;12.27;;
68089;SDS011;54880;50.986;6.990;2023-04-30T02:36:53;21.80;;;12.57;;
68089;SDS011;54880;50.986;6.990;2023-04-30T02:39:18;19.53;;;11.90;;
68089;SDS011;54880;50.986;6.990;2023-04-30T02:41:44;23.73;;;11.27;;
68089;SDS011;54880;50.986;6.990;2023-04-30T02:44:10;21.27;;;11.30;;
68089;SDS011;54880;50.986;6.990;2023-04-30T02:46:35;20.85;;;11.75;;
68089;SDS011;54880;50.986;6.990;2023-04-30T02:49:00;20.73;;;11.63;;
68089;SDS011;54880;50.986;6.990;2023-04-30T02:51:26;23.70;;;11.67;;
68089;SDS011;54880;50.986;6.990;2023-04-30T02:53:52;20.73;;;11.05;;
68089;SDS011;54880;50.986;6.990;2023-04-30T02:56:17;19.13;;;10.73;;
68089;SDS011;54880;50.986;6.990;2023-04-30T02:58:42;21.87;;;11.33;;
68089;SDS011;54880;50.986;6.990;2023-04-30T03:01:08;22.33;;;11.10;;
68089;SDS011;54880;50.986;6.990;2023-04-30T03:03:33;19.93;;;10.90;;
68089;SDS011;54880;50.986;6.990;2023-04-30T03:05:58;20.73;;;11.03;;
68089;SDS011;54880;50.986;6.990;2023-04-30T03:08:24;20.67;;;10.67;;
68089;SDS011;54880;50.986;6.990;2023-04-30T03:10:49;19.70;;;10.77;;
68089;SDS011;54880;50.986;6.990;2023-04-30T03:13:14;19.63;;;10.80;;
68089;SDS011;54880;50.986;6.990;2023-04-30T03:15:40;19.47;;;10.03;;
68089;SDS011;54880;50.986;6.990;2023-04-30T03:18:05;19.60;;;10.50;;
68089;SDS011;54880;50.986;6.990;2023-04-30T03:20:30;20.50;;;10.53;;
68089;SDS011;54880;50.986;6.990;2023-04-30T03:22:56;17.00;;;9.47;;
68089;SDS011;54880;50.986;6.990;2023-04-30T03:25:21;19.40;;;10.00;;
68089;SDS011;54880;50.986;6.990;2023-04-30T03:27:46;19.37;;;9.70;;
68089;SDS011;54880;50.986;6.990;2023-04-30T03:30:11;15.90;;;9.20;;
68089;SDS011;54880;50.986;6.990;2023-04-30T03:32:36;19.63;;;10.20;;
68089;SDS011;54880;50.986;6.990;2023-04-30T03:35:03;20.67;;;9.82;;
68089;SDS011;54880;50.986;6.990;2023-04-30T03:37:28;19.27;;;9.97;;
68089;SDS011;54880;50.986;6.990;2023-04-30T03:39:53;17.90;;;10.73;;
68089;SDS011;54880;50.986;6.990;2023-04-30T03:42:18;19.53;;;10.57;;
68089;SDS011;54880;50.986;6.990;2023-04-30T03:44:44;20.50;;;10.13;;
68089;SDS011;54880;50.986;6.990;2023-04-30T03:47:09;21.27;;;10.07;;
68089;SDS011;54880;50.986;6.990;2023-04-30T03:49:35;22.15;;;11.02;;
68089;SDS011;54880;50.986;6.990;2023-04-30T03:52:01;19.43;;;10.07;;
68089;SDS011;54880;50.986;6.990;2023-04-30T03:54:26;21.63;;;11.07;;
68089;SDS011;54880;50.986;6.990;2023-04-30T03:56:52;22.20;;;11.07;;
68089;SDS011;54880;50.986;6.990;2023-04-30T03:59:17;18.50;;;10.03;;
68089;SDS011;54880;50.986;6.990;2023-04-30T04:01:43;22.67;;;10.03;;
68089;SDS011;54880;50.986;6.990;2023-04-30T04:04:08;19.53;;;10.70;;
68089;SDS011;54880;50.986;6.990;2023-04-30T04:06:34;18.20;;;10.02;;
68089;SDS011;54880;50.986;6.990;2023-04-30T04:08:59;20.30;;;10.57;;
68089;SDS011;54880;50.986;6.990;2023-04-30T04:11:24;21.70;;;10.17;;
68089;SDS011;54880;50.986;6.990;2023-04-30T04:13:50;18.77;;;9.27;;
68089;SDS011;54880;50.986;6.990;2023-04-30T04:16:16;19.13;;;9.30;;
68089;SDS011;54880;50.986;6.990;2023-04-30T04:18:41;19.10;;;10.40;;
68089;SDS011;54880;50.986;6.990;2023-04-30T04:21:06;16.67;;;9.97;;
68089;SDS011;54880;50.986;6.990;2023-04-30T04:23:33;20.27;;;10.57;;
68089;SDS011;54880;50.986;6.990;2023-04-30T04:25:58;19.37;;;10.03;;
68089;SDS011;54880;50.986;6.990;2023-04-30T04:28:24;19.08;;;10.02;;
68089;SDS011;54880;50.986;6.990;2023-04-30T04:30:49;17.77;;;9.97;;
68089;SDS011;54880;50.986;6.990;2023-04-30T04:33:15;17.90;;;9.17;;
68089;SDS011;54880;50.986;6.990;2023-04-30T04:35:42;17.73;;;9.30;;
68089;SDS011;54880;50.986;6.990;2023-04-30T04:38:08;21.83;;;10.60;;
68089;SDS011;54880;50.986;6.990;2023-04-30T04:40:33;17.93;;;9.27;;
68089;SDS011;54880;50.986;6.990;2023-04-30T04:42:59;17.70;;;9.27;;
68089;SDS011;54880;50.986;6.990;2023-04-30T04:45:25;19.10;;;9.90;;
68089;SDS011;54880;50.986;6.990;2023-04-30T04:47:51;17.65;;;9.50;;
68089;SDS011;54880;50.986;6.990;2023-04-30T04:50:17;18.80;;;9.87;;
68089;SDS011;54880;50.986;6.990;2023-04-30T04:52:42;20.27;;;10.03;;
68089;SDS011;54880;50.986;6.990;2023-04-30T04:55:07;15.90;;;8.82;;
68089;SDS011;54880;50.986;6.990;2023-04-30T04:57:34;17.80;;;9.57;;
68089;SDS011;54880;50.986;6.990;2023-04-30T05:00:00;17.27;;;10.43;;
68089;SDS011;54880;50.986;6.990;2023-04-30T05:02:25;19.53;;;9.03;;
68089;SDS011;54880;50.986;6.990;2023-04-30T05:04:50;17.97;;;9.67;;
68089;SDS011;54880;50.986;6.990;2023-04-30T05:07:17;17.42;;;9.32;;
68089;SDS011;54880;50.986;6.990;2023-04-30T05:09:43;20.33;;;9.80;;
68089;SDS011;54880;50.986;6.990;2023-04-30T05:12:08;18.98;;;9.80;;
68089;SDS011;54880;50.986;6.990;2023-04-30T05:14:34;21.03;;;10.43;;
68089;SDS011;54880;50.986;6.990;2023-04-30T05:16:59;19.60;;;9.70;;
68089;SDS011;54880;50.986;6.990;2023-04-30T05:19:25;17.47;;;10.03;;
68089;SDS011;54880;50.986;6.990;2023-04-30T05:21:50;18.77;;;10.20;;
68089;SDS011;54880;50.986;6.990;2023-04-30T05:24:15;18.87;;;10.00;;
68089;SDS011;54880;50.986;6.990;2023-04-30T05:26:41;22.58;;;10.75;;
68089;SDS011;54880;50.986;6.990;2023-04-30T05:29:06;18.97;;;9.67;;
68089;SDS011;54880;50.986;6.990;2023-04-30T05:31:32;21.17;;;11.00;;
68089;SDS011;54880;50.986;6.990;2023-04-30T05:33:57;19.67;;;10.07;;
68089;SDS011;54880;50.986;6.990;2023-04-30T05:36:22;18.17;;;9.93;;
68089;SDS011;54880;50.986;6.990;2023-04-30T05:38:47;20.23;;;10.30;;
68089;SDS011;54880;50.986;6.990;2023-04-30T05:41:13;19.50;;;10.30;;
68089;SDS011;54880;50.986;6.990;2023-04-30T05:43:38;18.27;;;10.37;;
68089;SDS011;54880;50.986;6.990;2023-04-30T05:46:03;18.93;;;10.17;;
68089;SDS011;54880;50.986;6.990;2023-04-30T05:48:29;18.23;;;9.90;;
68089;SDS011;54880;50.986;6.990;2023-04-30T05:50:55;18.53;;;10.27;;
68089;SDS011;54880;50.986;6.990;2023-04-30T05:53:20;18.00;;;9.93;;
68089;SDS011;54880;50.986;6.990;2023-04-30T05:55:45;20.33;;;10.53;;
68089;SDS011;54880;50.986;6.990;2023-04-30T05:58:10;19.37;;;10.70;;
68089;SDS011;54880;50.986;6.990;2023-04-30T06:00:36;18.73;;;9.70;;
68089;SDS011;54880;50.986;6.990;2023-04-30T06:03:01;20.58;;;10.02;;
68089;SDS011;54880;50.986;6.990;2023-04-30T06:05:27;19.13;;;9.87;;
68089;SDS011;54880;50.986;6.990;2023-04-30T06:07:52;18.53;;;10.63;;
68089;SDS011;54880;50.986;6.990;2023-04-30T06:10:17;22.20;;;10.63;;
68089;SDS011;54880;50.986;6.990;2023-04-30T06:12:42;17.80;;;10.23;;
68089;SDS011;54880;50.986;6.990;2023-04-30T06:15:08;22.10;;;10.03;;
68089;SDS011;54880;50.986;6.990;2023-04-30T06:17:33;18.07;;;10.00;;
68089;SDS011;54880;50.986;6.990;2023-04-30T06:19:58;19.93;;;10.50;;
68089;SDS011;54880;50.986;6.990;2023-04-30T06:22:26;18.52;;;10.15;;
68089;SDS011;54880;50.986;6.990;2023-04-30T06:24:51;18.87;;;10.40;;
68089;SDS011;54880;50.986;6.990;2023-04-30T06:27:17;19.33;;;10.20;;
68089;SDS011;54880;50.986;6.990;2023-04-30T06:29:42;20.10;;;10.80;;
68089;SDS011;54880;50.986;6.990;2023-04-30T06:32:07;18.23;;;9.77;;
68089;SDS011;54880;50.986;6.990;2023-04-30T06:34:32;18.53;;;10.07;;
68089;SDS011;54880;50.986;6.990;2023-04-30T06:36:58;18.63;;;9.83;;
68089;SDS011;54880;50.986;6.990;2023-04-30T06:39:23;18.50;;;9.90;;
68089;SDS011;54880;50.986;6.990;2023-04-30T06:41:48;20.80;;;9.67;;
68089;SDS011;54880;50.986;6.990;2023-04-30T06:44:13;20.17;;;9.67;;
68089;SDS011;54880;50.986;6.990;2023-04-30T06:46:39;20.17;;;11.00;;
68089;SDS011;54880;50.986;6.990;2023-04-30T06:49:04;17.67;;;9.88;;
68089;SDS011;54880;50.986;6.990;2023-04-30T06:51:30;18.60;;;10.23;;
68089;SDS011;54880;50.986;6.990;2023-04-30T06:53:55;22.37;;;10.33;;
68089;SDS011;54880;50.986;6.990;2023-04-30T06:56:20;18.67;;;10.27;;
68089;SDS011;54880;50.986;6.990;2023-04-30T06:58:46;17.10;;;9.60;;
68089;SDS011;54880;50.986;6.990;2023-04-30T07:01:11;19.20;;;10.00;;
68089;SDS011;54880;50.986;6.990;2023-04-30T07:03:37;21.15;;;10.23;;
68089;SDS011;54880;50.986;6.990;2023-04-30T07:06:03;19.53;;;10.23;;
68089;SDS011;54880;50.986;6.990;2023-04-30T07:08:28;17.97;;;9.30;;
68089;SDS011;54880;50.986;6.990;2023-04-30T07:10:53;17.30;;;9.67;;
68089;SDS011;54880;50.986;6.990;2023-04-30T07:13:18;17.50;;;10.10;;
68089;SDS011;54880;50.986;6.990;2023-04-30T07:15:44;18.23;;;10.70;;
68089;SDS011;54880;50.986;6.990;2023-04-30T07:18:09;17.93;;;10.30;;
68089;SDS011;54880;50.986;6.990;2023-04-30T07:20:34;19.57;;;10.27;;
68089;SDS011;54880;50.986;6.990;2023-04-30T07:22:59;18.67;;;10.27;;
68089;SDS011;54880;50.986;6.990;2023-04-30T07:25:25;16.53;;;10.13;;
68089;SDS011;54880;50.986;6.990;2023-04-30T07:27:50;18.23;;;10.63;;
68089;SDS011;54880;50.986;6.990;2023-04-30T07:30:16;19.85;;;10.00;;
68089;SDS011;54880;50.986;6.990;2023-04-30T07:32:42;19.83;;;10.10;;
68089;SDS011;54880;50.986;6.990;2023-04-30T07:35:07;18.30;;;10.23;;
68089;SDS011;54880;50.986;6.990;2023-04-30T07:37:33;17.42;;;10.65;;
68089;SDS011;54880;50.986;6.990;2023-04-30T07:39:58;17.87;;;9.80;;
68089;SDS011;54880;50.986;6.990;2023-04-30T07:42:23;17.40;;;9.27;;
68089;SDS011;54880;50.986;6.990;2023-04-30T07:44:48;18.57;;;9.40;;
68089;SDS011;54880;50.986;6.990;2023-04-30T07:47:14;19.07;;;10.03;;
68089;SDS011;54880;50.986;6.990;2023-04-30T07:49:39;19.23;;;10.50;;
68089;SDS011;54880;50.986;6.990;2023-04-30T07:52:04;20.13;;;9.40;;
68089;SDS011;54880;50.986;6.990;2023-04-30T07:54:30;16.83;;;9.40;;
68089;SDS011;54880;50.986;6.990;2023-04-30T07:56:55;17.43;;;9.47;;
68089;SDS011;54880;50.986;6.990;2023-04-30T07:59:20;17.00;;;9.03;;
68089;SDS011;54880;50.986;6.990;2023-04-30T08:01:48;19.75;;;9.68;;
68089;SDS011;54880;50.986;6.990;2023-04-30T08:04:14;17.17;;;9.27;;
68089;SDS011;54880;50.986;6.990;2023-04-30T08:06:39;15.23;;;8.80;;
68089;SDS011;54880;50.986;6.990;2023-04-30T08:09:04;16.13;;;9.10;;
68089;SDS011;54880;50.986;6.990;2023-04-30T08:11:29;15.25;;;8.45;;
68089;SDS011;54880;50.986;6.990;2023-04-30T08:13:55;18.67;;;9.80;;
68089;SDS011;54880;50.986;6.990;2023-04-30T08:16:20;17.03;;;8.93;;
68089;SDS011;54880;50.986;6.990;2023-04-30T08:18:46;15.50;;;8.20;;
68089;SDS011;54880;50.986;6.990;2023-04-30T08:21:13;14.93;;;8.93;;
68089;SDS011;54880;50.986;6.990;2023-04-30T08:23:39;17.73;;;9.17;;
68089;SDS011;54880;50.986;6.990;2023-04-30T08:26:04;14.93;;;8.57;;
68089;SDS011;54880;50.986;6.990;2023-04-30T08:28:29;15.27;;;8.40;;
68089;SDS011;54880;50.986;6.990;2023-04-30T08:30:55;15.77;;;8.77;;
68089;SDS011;54880;50.986;6.990;2023-04-30T08:33:20;14.60;;;8.03;;
68089;SDS011;54880;50.986;6.990;2023-04-30T08:35:46;15.90;;;8.57;;
68089;SDS011;54880;50.986;6.990;2023-04-30T08:38:11;13.73;;;8.13;;
68089;SDS011;54880;50.986;6.990;2023-04-30T08:40:36;18.37;;;8.63;;
68089;SDS011;54880;50.986;6.990;2023-04-30T08:43:05;14.27;;;7.93;;
68089;SDS011;54880;50.986;6.990;2023-04-30T08:45:35;16.08;;;8.13;;
68089;SDS011;54880;50.986;6.990;2023-04-30T08:48:01;16.05;;;7.32;;
68089;SDS011;54880;50.986;6.990;2023-04-30T08:50:27;13.40;;;8.07;;
68089;SDS011;54880;50.986;6.990;2023-04-30T08:52:52;17.27;;;8.50;;
68089;SDS011;54880;50.986;6.990;2023-04-30T08:55:17;14.50;;;7.20;;
68089;SDS011;54880;50.986;6.990;2023-04-30T08:57:43;14.17;;;6.83;;
68089;SDS011;54880;50.986;6.990;2023-04-30T09:00:08;11.30;;;6.80;;
68089;SDS011;54880;50.986;6.990;2023-04-30T09:02:34;16.35;;;6.93;;
68089;SDS011;54880;50.986;6.990;2023-04-30T09:05:05;13.75;;;6.65;;
68089;SDS011;54880;50.986;6.990;2023-04-30T09:07:31;12.90;;;6.73;;
68089;SDS011;54880;50.986;6.990;2023-04-30T09:09:57;13.77;;;6.28;;
68089;SDS011;54880;50.986;6.990;2023-04-30T09:12:24;15.20;;;6.28;;
68089;SDS011;54880;50.986;6.990;2023-04-30T09:15:00;13.10;;;6.20;;
68089;SDS011;54880;50.986;6.990;2023-04-30T09:17:25;12.45;;;6.10;;
68089;SDS011;54880;50.986;6.990;2023-04-30T09:19:50;10.67;;;5.80;;
68089;SDS011;54880;50.986;6.990;2023-04-30T09:22:19;9.30;;;5.37;;
68089;SDS011;54880;50.986;6.990;2023-04-30T09:24:46;9.70;;;5.03;;
68089;SDS011;54880;50.986;6.990;2023-04-30T09:27:15;11.23;;;5.68;;
68089;SDS011;54880;50.986;6.990;2023-04-30T09:29:41;11.33;;;5.27;;
68089;SDS011;54880;50.986;6.990;2023-04-30T09:32:07;14.73;;;5.90;;
68089;SDS011;54880;50.986;6.990;2023-04-30T09:34:32;12.13;;;5.90;;
68089;SDS011;54880;50.986;6.990;2023-04-30T09:36:58;13.05;;;6.05;;
68089;SDS011;54880;50.986;6.990;2023-04-30T09:39:23;11.77;;;5.70;;
68089;SDS011;54880;50.986;6.990;2023-04-30T09:41:49;11.57;;;4.73;;
68089;SDS011;54880;50.986;6.990;2023-04-30T09:44:25;10.98;;;4.63;;
68089;SDS011;54880;50.986;6.990;2023-04-30T09:46:50;9.02;;;4.10;;
68089;SDS011;54880;50.986;6.990;2023-04-30T09:49:16;7.70;;;3.07;;
68089;SDS011;54880;50.986;6.990;2023-04-30T09:51:52;6.70;;;1.40;;
68089;SDS011;54880;50.986;6.990;2023-04-30T09:54:18;7.82;;;1.75;;
68089;SDS011;54880;50.986;6.990;2023-04-30T09:56:45;5.78;;;1.67;;
68089;SDS011;54880;50.986;6.990;2023-04-30T09:59:11;4.63;;;1.37;;
68089;SDS011;54880;50.986;6.990;2023-04-30T10:01:37;6.82;;;1.42;;
68089;SDS011;54880;50.986;6.990;2023-04-30T10:04:02;5.87;;;1.20;;
68089;SDS011;54880;50.986;6.990;2023-04-30T10:06:29;4.90;;;1.13;;
68089;SDS011;54880;50.986;6.990;2023-04-30T10:08:59;4.38;;;1.35;;
68089;SDS011;54880;50.986;6.990;2023-04-30T10:11:26;4.57;;;1.20;;
68089;SDS011;54880;50.986;6.990;2023-04-30T10:14:02;4.40;;;1.20;;
68089;SDS011;54880;50.986;6.990;2023-04-30T10:19:18;4.78;;;1.38;;
68089;SDS011;54880;50.986;6.990;2023-04-30T10:21:44;4.82;;;1.30;;
68089;SDS011;54880;50.986;6.990;2023-04-30T10:24:11;6.97;;;1.40;;
68089;SDS011;54880;50.986;6.990;2023-04-30T10:26:37;3.90;;;1.20;;
68089;SDS011;54880;50.986;6.990;2023-04-30T10:29:02;4.10;;;1.20;;
68089;SDS011;54880;50.986;6.990;2023-04-30T10:31:29;5.47;;;1.20;;
68089;SDS011;54880;50.986;6.990;2023-04-30T10:36:25;5.10;;;1.13;;
68089;SDS011;54880;50.986;6.990;2023-04-30T10:38:52;3.50;;;0.87;;
68089;SDS011;54880;50.986;6.990;2023-04-30T10:41:18;3.58;;;1.13;;
68089;SDS011;54880;50.986;6.990;2023-04-30T10:43:43;3.95;;;1.20;;
68089;SDS011;54880;50.986;6.990;2023-04-30T10:46:11;4.40;;;1.30;;
68089;SDS011;54880;50.986;6.990;2023-04-30T10:48:36;4.10;;;1.20;;
68089;SDS011;54880;50.986;6.990;2023-04-30T10:51:01;5.53;;;1.40;;
68089;SDS011;54880;50.986;6.990;2023-04-30T10:53:30;5.43;;;1.33;;
68089;SDS011;54880;50.986;6.990;2023-04-30T10:55:57;5.18;;;1.55;;
68089;SDS011;54880;50.986;6.990;2023-04-30T10:58:26;5.05;;;1.52;;
68089;SDS011;54880;50.986;6.990;2023-04-30T11:03:36;5.25;;;1.60;;
68089;SDS011;54880;50.986;6.990;2023-04-30T11:06:12;4.90;;;1.70;;
68089;SDS011;54880;50.986;6.990;2023-04-30T11:08:38;4.80;;;1.40;;
68089;SDS011;54880;50.986;6.990;2023-04-30T11:11:03;4.25;;;1.20;;
68089;SDS011;54880;50.986;6.990;2023-04-30T11:13:38;4.93;;;1.50;;
68089;SDS011;54880;50.986;6.990;2023-04-30T11:16:03;6.18;;;1.80;;
68089;SDS011;54880;50.986;6.990;2023-04-30T11:18:29;6.40;;;1.57;;
68089;SDS011;54880;50.986;6.990;2023-04-30T11:20:55;4.43;;;1.50;;
68089;SDS011;54880;50.986;6.990;2023-04-30T11:23:22;5.20;;;1.50;;
68089;SDS011;54880;50.986;6.990;2023-04-30T11:25:47;5.70;;;1.60;;
68089;SDS011;54880;50.986;6.990;2023-04-30T11:28:16;7.03;;;1.40;;
68089;SDS011;54880;50.986;6.990;2023-04-30T11:30:52;4.20;;;1.35;;
68089;SDS011;54880;50.986;6.990;2023-04-30T11:33:18;4.65;;;1.67;;
68089;SDS011;54880;50.986;6.990;2023-04-30T11:35:43;5.50;;;1.40;;
68089;SDS011;54880;50.986;6.990;2023-04-30T11:38:11;5.38;;;1.50;;
68089;SDS011;54880;50.986;6.990;2023-04-30T11:40:36;3.88;;;1.17;;
68089;SDS011;54880;50.986;6.990;2023-04-30T11:43:02;4.05;;;1.30;;
68089;SDS011;54880;50.986;6.990;2023-04-30T11:45:28;4.47;;;1.30;;
68089;SDS011;54880;50.986;6.990;2023-04-30T11:47:54;4.68;;;1.40;;
68089;SDS011;54880;50.986;6.990;2023-04-30T11:50:22;4.97;;;1.10;;
68089;SDS011;54880;50.986;6.990;2023-04-30T11:52:57;5.78;;;1.20;;
68089;SDS011;54880;50.986;6.990;2023-04-30T11:55:23;4.15;;;1.27;;
68089;SDS011;54880;50.986;6.990;2023-04-30T11:57:49;4.05;;;1.20;;
68089;SDS011;54880;50.986;6.990;2023-04-30T12:00:18;4.03;;;1.35;;
68089;SDS011;54880;50.986;6.990;2023-04-30T12:02:44;4.15;;;1.20;;
68089;SDS011;54880;50.986;6.990;2023-04-30T12:05:16;3.78;;;1.20;;
68089;SDS011;54880;50.986;6.990;2023-04-30T12:07:48;4.03;;;1.27;;
68089;SDS011;54880;50.986;6.990;2023-04-30T12:10:14;4.43;;;1.13;;
68089;SDS011;54880;50.986;6.990;2023-04-30T12:12:41;4.90;;;1.20;;
68089;SDS011;54880;50.986;6.990;2023-04-30T12:15:09;4.55;;;1.30;;
68089;SDS011;54880;50.986;6.990;2023-04-30T12:17:35;4.40;;;1.23;;
68089;SDS011;54880;50.986;6.990;2023-04-30T12:20:00;4.17;;;1.30;;
68089;SDS011;54880;50.986;6.990;2023-04-30T12:22:26;5.70;;;1.40;;
68089;SDS011;54880;50.986;6.990;2023-04-30T12:24:51;3.63;;;1.10;;
68089;SDS011;54880;50.986;6.990;2023-04-30T12:27:16;4.67;;;1.30;;
68089;SDS011;54880;50.986;6.990;2023-04-30T12:29:45;4.20;;;1.40;;
68089;SDS011;54880;50.986;6.990;2023-04-30T12:32:11;4.68;;;1.20;;
68089;SDS011;54880;50.986;6.990;2023-04-30T12:34:40;4.05;;;1.00;;
68089;SDS011;54880;50.986;6.990;2023-04-30T12:37:05;3.50;;;1.10;;
68089;SDS011;54880;50.986;6.990;2023-04-30T12:39:32;3.33;;;0.93;;
68089;SDS011;54880;50.986;6.990;2023-04-30T12:41:58;5.18;;;1.30;;
68089;SDS011;54880;50.986;6.990;2023-04-30T12:44:24;3.65;;;1.00;;
68089;SDS011;54880;50.986;6.990;2023-04-30T12:46:54;3.60;;;1.10;;
68089;SDS011;54880;50.986;6.990;2023-04-30T12:49:28;3.63;;;1.30;;
68089;SDS011;54880;50.986;6.990;2023-04-30T12:52:04;4.15;;;1.20;;
68089;SDS011;54880;50.986;6.990;2023-04-30T12:54:32;4.18;;;1.10;;
68089;SDS011;54880;50.986;6.990;2023-04-30T12:57:01;4.47;;;1.20;;
68089;SDS011;54880;50.986;6.990;2023-04-30T12:59:27;4.22;;;1.15;;
68089;SDS011;54880;50.986;6.990;2023-04-30T13:01:53;4.47;;;1.17;;
68089;SDS011;54880;50.986;6.990;2023-04-30T13:04:21;3.80;;;1.10;;
68089;SDS011;54880;50.986;6.990;2023-04-30T13:06:46;3.53;;;1.00;;
68089;SDS011;54880;50.986;6.990;2023-04-30T13:09:12;4.67;;;1.00;;
68089;SDS011;54880;50.986;6.990;2023-04-30T13:11:37;4.50;;;1.20;;
68089;SDS011;54880;50.986;6.990;2023-04-30T13:14:02;5.63;;;1.10;;
68089;SDS011;54880;50.986;6.990;2023-04-30T13:16:27;5.67;;;1.30;;
68089;SDS011;54880;50.986;6.990;2023-04-30T13:18:54;5.07;;;0.90;;
68089;SDS011;54880;50.986;6.990;2023-04-30T13:21:20;4.07;;;1.10;;
68089;SDS011;54880;50.986;6.990;2023-04-30T13:23:45;4.80;;;1.10;;
68089;SDS011;54880;50.986;6.990;2023-04-30T13:26:10;3.13;;;0.90;;
68089;SDS011;54880;50.986;6.990;2023-04-30T13:28:35;3.80;;;1.00;;
68089;SDS011;54880;50.986;6.990;2023-04-30T13:31:01;3.03;;;0.80;;
68089;SDS011;54880;50.986;6.990;2023-04-30T13:33:26;3.60;;;1.10;;
68089;SDS011;54880;50.986;6.990;2023-04-30T13:35:52;4.28;;;0.90;;
68089;SDS011;54880;50.986;6.990;2023-04-30T13:38:17;6.10;;;1.40;;
68089;SDS011;54880;50.986;6.990;2023-04-30T13:40:42;5.27;;;1.10;;
68089;SDS011;54880;50.986;6.990;2023-04-30T13:43:07;3.53;;;1.03;;
68089;SDS011;54880;50.986;6.990;2023-04-30T13:45:33;4.30;;;1.03;;
68089;SDS011;54880;50.986;6.990;2023-04-30T13:47:58;4.33;;;1.03;;
68089;SDS011;54880;50.986;6.990;2023-04-30T13:50:23;3.43;;;0.90;;
68089;SDS011;54880;50.986;6.990;2023-04-30T13:52:49;3.67;;;1.00;;
68089;SDS011;54880;50.986;6.990;2023-04-30T13:55:14;3.67;;;1.07;;
68089;SDS011;54880;50.986;6.990;2023-04-30T13:57:39;4.47;;;1.10;;
68089;SDS011;54880;50.986;6.990;2023-04-30T14:00:05;3.43;;;1.20;;
68089;SDS011;54880;50.986;6.990;2023-04-30T14:02:33;5.45;;;1.30;;
68089;SDS011;54880;50.986;6.990;2023-04-30T14:04:58;3.95;;;1.08;;
68089;SDS011;54880;50.986;6.990;2023-04-30T14:07:27;3.93;;;1.10;;
68089;SDS011;54880;50.986;6.990;2023-04-30T14:09:52;3.40;;;0.93;;
68089;SDS011;54880;50.986;6.990;2023-04-30T14:12:17;4.78;;;1.30;;
68089;SDS011;54880;50.986;6.990;2023-04-30T14:14:43;3.63;;;1.13;;
68089;SDS011;54880;50.986;6.990;2023-04-30T14:17:08;3.33;;;1.00;;
68089;SDS011;54880;50.986;6.990;2023-04-30T14:19:34;3.23;;;0.73;;
68089;SDS011;54880;50.986;6.990;2023-04-30T14:21:59;2.97;;;0.90;;
68089;SDS011;54880;50.986;6.990;2023-04-30T14:24:25;3.88;;;1.13;;
68089;SDS011;54880;50.986;6.990;2023-04-30T14:26:50;3.43;;;1.00;;
68089;SDS011;54880;50.986;6.990;2023-04-30T14:29:15;4.63;;;1.40;;
68089;SDS011;54880;50.986;6.990;2023-04-30T14:31:42;4.35;;;1.23;;
68089;SDS011;54880;50.986;6.990;2023-04-30T14:34:07;3.83;;;1.10;;
68089;SDS011;54880;50.986;6.990;2023-04-30T14:36:33;3.87;;;0.90;;
68089;SDS011;54880;50.986;6.990;2023-04-30T14:38:58;4.07;;;1.10;;
68089;SDS011;54880;50.986;6.990;2023-04-30T14:41:23;3.27;;;0.90;;
68089;SDS011;54880;50.986;6.990;2023-04-30T14:43:49;4.00;;;0.98;;